sensor_id;sensor_type;location;lat;lon;timestamp;P1;durP1;ratioP1;P2;durP2;ratioP2
10701;SDS011;5402;50.004;8.246;2022-07-01T00:00:26;0.00;;;0.00;;
10701;SDS011;5402;50.004;8.246;2022-07-01T00:02:55;0.00;;;0.00;;
10701;SDS011;5402;50.004;8.246;2022-07-01T00:05:21;0.00;;;0.00;;
10701;SDS011;5402;50.004;8.246;2022-07-01T00:07:48;0.00;;;0.00;;
10701;SDS011;5402;50.004;8.246;2022-07-01T00:10:15;0.00;;;0.00;;
10701;SDS011;5402;50.004;8.246;2022-07-01T00:12:42;0.00;;;0.00;;
10701;SDS011;5402;50.004;8.246;2022-07-01T00:15:09;0.00;;;0.00;;
10701;SDS011;5402;50.004;8.246;2022-07-01T00:17:36;0.00;;;0.00;;
10701;SDS011;5402;50.004;8.246;2022-07-01T00:20:04;0.00;;;0.00;;
10701;SDS011;5402;50.004;8.246;2022-07-01T00:22:32;0.00;;;0.00;;
10701;SDS011;5402;50.004;8.246;2022-07-01T00:24:59;0.00;;;0.00;;
10701;SDS011;5402;50.004;8.246;2022-07-01T00:27:26;0.00;;;0.00;;
10701;SDS011;5402;50.004;8.246;2022-07-01T00:29:53;0.00;;;0.00;;
10701;SDS011;5402;50.004;8.246;2022-07-01T00:32:21;0.00;;;0.00;;
10701;SDS011;5402;50.004;8.246;2022-07-01T00:34:48;0.00;;;0.00;;
10701;SDS011;5402;50.004;8.246;2022-07-01T00:37:16;0.00;;;0.00;;
10701;SDS011;5402;50.004;8.246;2022-07-01T00:39:42;0.00;;;0.00;;
10701;SDS011;5402;50.004;8.246;2022-07-01T00:42:09;0.00;;;0.00;;
10701;SDS011;5402;50.004;8.246;2022-07-01T00:44:36;0.00;;;0.00;;
10701;SDS011;5402;50.004;8.246;2022-07-01T00:47:03;0.00;;;0.00;;
10701;SDS011;5402;50.004;8.246;2022-07-01T00:49:35;0.00;;;0.00;;
10701;SDS011;5402;50.004;8.246;2022-07-01T00:52:03;0.00;;;0.00;;
10701;SDS011;5402;50.004;8.246;2022-07-01T00:54:31;0.00;;;0.00;;
10701;SDS011;5402;50.004;8.246;2022-07-01T00:57:05;0.00;;;0.00;;
10701;SDS011;5402;50.004;8.246;2022-07-01T00:59:32;0.00;;;0.00;;
10701;SDS011;5402;50.004;8.246;2022-07-01T01:02:00;0.00;;;0.00;;
10701;SDS011;5402;50.004;8.246;2022-07-01T01:04:27;0.00;;;0.00;;
10701;SDS011;5402;50.004;8.246;2022-07-01T01:06:54;0.00;;;0.00;;
10701;SDS011;5402;50.004;8.246;2022-07-01T01:09:21;0.00;;;0.00;;
10701;SDS011;5402;50.004;8.246;2022-07-01T01:11:49;0.00;;;0.00;;
10701;SDS011;5402;50.004;8.246;2022-07-01T01:14:17;0.00;;;0.00;;
10701;SDS011;5402;50.004;8.246;2022-07-01T01:16:43;0.00;;;0.00;;
10701;SDS011;5402;50.004;8.246;2022-07-01T01:19:10;0.00;;;0.00;;
10701;SDS011;5402;50.004;8.246;2022-07-01T01:21:38;0.00;;;0.00;;
10701;SDS011;5402;50.004;8.246;2022-07-01T01:24:10;0.00;;;0.00;;
10701;SDS011;5402;50.004;8.246;2022-07-01T01:26:37;0.00;;;0.00;;
10701;SDS011;5402;50.004;8.246;2022-07-01T01:29:05;0.00;;;0.00;;
10701;SDS011;5402;50.004;8.246;2022-07-01T01:31:32;0.00;;;0.00;;
10701;SDS011;5402;50.004;8.246;2022-07-01T01:33:59;0.00;;;0.00;;
10701;SDS011;5402;50.004;8.246;2022-07-01T01:36:27;0.00;;;0.00;;
10701;SDS011;5402;50.004;8.246;2022-07-01T01:38:55;0.00;;;0.00;;
10701;SDS011;5402;50.004;8.246;2022-07-01T01:41:23;0.00;;;0.00;;
10701;SDS011;5402;50.004;8.246;2022-07-01T01:43:50;0.00;;;0.00;;
10701;SDS011;5402;50.004;8.246;2022-07-01T01:46:17;0.00;;;0.00;;
10701;SDS011;5402;50.004;8.246;2022-07-01T01:48:44;0.00;;;0.00;;
10701;SDS011;5402;50.004;8.246;2022-07-01T01:51:11;0.00;;;0.00;;
10701;SDS011;5402;50.004;8.246;2022-07-01T01:53:39;0.00;;;0.00;;
10701;SDS011;5402;50.004;8.246;2022-07-01T01:56:07;0.00;;;0.00;;
10701;SDS011;5402;50.004;8.246;2022-07-01T01:58:39;0.10;;;0.10;;
10701;SDS011;5402;50.004;8.246;2022-07-01T02:01:09;0.00;;;0.00;;
10701;SDS011;5402;50.004;8.246;2022-07-01T02:03:42;0.00;;;0.00;;
10701;SDS011;5402;50.004;8.246;2022-07-01T02:06:10;0.00;;;0.00;;
10701;SDS011;5402;50.004;8.246;2022-07-01T02:08:41;0.00;;;0.00;;
10701;SDS011;5402;50.004;8.246;2022-07-01T02:11:09;0.00;;;0.00;;
10701;SDS011;5402;50.004;8.246;2022-07-01T02:13:37;0.00;;;0.00;;
10701;SDS011;5402;50.004;8.246;2022-07-01T02:16:04;0.00;;;0.00;;
10701;SDS011;5402;50.004;8.246;2022-07-01T02:18:31;0.00;;;0.00;;
10701;SDS011;5402;50.004;8.246;2022-07-01T02:20:58;0.00;;;0.00;;
10701;SDS011;5402;50.004;8.246;2022-07-01T02:23:25;0.00;;;0.00;;
10701;SDS011;5402;50.004;8.246;2022-07-01T02:25:52;0.00;;;0.00;;
10701;SDS011;5402;50.004;8.246;2022-07-01T02:28:20;0.00;;;0.00;;
10701;SDS011;5402;50.004;8.246;2022-07-01T02:30:46;0.00;;;0.00;;
10701;SDS011;5402;50.004;8.246;2022-07-01T02:33:13;0.00;;;0.00;;
10701;SDS011;5402;50.004;8.246;2022-07-01T02:35:40;0.00;;;0.00;;
10701;SDS011;5402;50.004;8.246;2022-07-01T02:38:07;0.00;;;0.00;;
10701;SDS011;5402;50.004;8.246;2022-07-01T02:40:34;0.00;;;0.00;;
10701;SDS011;5402;50.004;8.246;2022-07-01T02:43:02;0.00;;;0.00;;
10701;SDS011;5402;50.004;8.246;2022-07-01T02:45:30;0.00;;;0.00;;
10701;SDS011;5402;50.004;8.246;2022-07-01T02:48:01;0.00;;;0.00;;
10701;SDS011;5402;50.004;8.246;2022-07-01T02:50:28;0.00;;;0.00;;
10701;SDS011;5402;50.004;8.246;2022-07-01T02:52:56;0.00;;;0.00;;
10701;SDS011;5402;50.004;8.246;2022-07-01T02:55:24;0.00;;;0.00;;
10701;SDS011;5402;50.004;8.246;2022-07-01T02:57:51;0.00;;;0.00;;
10701;SDS011;5402;50.004;8.246;2022-07-01T03:00:19;0.00;;;0.00;;
10701;SDS011;5402;50.004;8.246;2022-07-01T03:02:48;0.00;;;0.00;;
10701;SDS011;5402;50.004;8.246;2022-07-01T03:05:15;0.00;;;0.00;;
10701;SDS011;5402;50.004;8.246;2022-07-01T03:07:42;0.00;;;0.00;;
10701;SDS011;5402;50.004;8.246;2022-07-01T03:10:09;0.00;;;0.00;;
10701;SDS011;5402;50.004;8.246;2022-07-01T03:12:37;0.00;;;0.00;;
10701;SDS011;5402;50.004;8.246;2022-07-01T03:15:06;0.00;;;0.00;;
10701;SDS011;5402;50.004;8.246;2022-07-01T03:17:34;0.00;;;0.00;;
10701;SDS011;5402;50.004;8.246;2022-07-01T03:20:05;0.00;;;0.00;;
10701;SDS011;5402;50.004;8.246;2022-07-01T03:22:34;0.00;;;0.00;;
10701;SDS011;5402;50.004;8.246;2022-07-01T03:25:02;0.00;;;0.00;;
10701;SDS011;5402;50.004;8.246;2022-07-01T03:27:29;0.00;;;0.00;;
10701;SDS011;5402;50.004;8.246;2022-07-01T03:29:57;0.00;;;0.00;;
10701;SDS011;5402;50.004;8.246;2022-07-01T03:32:24;0.00;;;0.00;;
10701;SDS011;5402;50.004;8.246;2022-07-01T03:34:51;0.00;;;0.00;;
10701;SDS011;5402;50.004;8.246;2022-07-01T03:37:20;0.00;;;0.00;;
10701;SDS011;5402;50.004;8.246;2022-07-01T03:39:48;0.00;;;0.00;;
10701;SDS011;5402;50.004;8.246;2022-07-01T03:42:16;0.00;;;0.00;;
10701;SDS011;5402;50.004;8.246;2022-07-01T03:44:43;0.00;;;0.00;;
10701;SDS011;5402;50.004;8.246;2022-07-01T03:47:10;0.00;;;0.00;;
10701;SDS011;5402;50.004;8.246;2022-07-01T03:49:36;0.00;;;0.00;;
10701;SDS011;5402;50.004;8.246;2022-07-01T03:52:03;0.30;;;0.30;;
10701;SDS011;5402;50.004;8.246;2022-07-01T03:54:32;0.13;;;0.13;;
10701;SDS011;5402;50.004;8.246;2022-07-01T03:57:03;0.00;;;0.00;;
10701;SDS011;5402;50.004;8.246;2022-07-01T03:59:31;0.00;;;0.00;;
10701;SDS011;5402;50.004;8.246;2022-07-01T04:02:00;0.30;;;0.20;;
10701;SDS011;5402;50.004;8.246;2022-07-01T04:04:27;4.90;;;0.50;;
10701;SDS011;5402;50.004;8.246;2022-07-01T04:06:57;0.10;;;0.10;;
10701;SDS011;5402;50.004;8.246;2022-07-01T04:09:25;0.27;;;0.27;;
10701;SDS011;5402;50.004;8.246;2022-07-01T04:11:55;2.63;;;0.30;;
10701;SDS011;5402;50.004;8.246;2022-07-01T04:14:23;0.47;;;0.47;;
10701;SDS011;5402;50.004;8.246;2022-07-01T04:16:50;0.47;;;0.47;;
10701;SDS011;5402;50.004;8.246;2022-07-01T04:19:18;0.40;;;0.40;;
10701;SDS011;5402;50.004;8.246;2022-07-01T04:21:48;0.60;;;0.60;;
10701;SDS011;5402;50.004;8.246;2022-07-01T04:24:32;0.57;;;0.57;;
10701;SDS011;5402;50.004;8.246;2022-07-01T04:27:00;0.60;;;0.60;;
10701;SDS011;5402;50.004;8.246;2022-07-01T04:29:27;0.40;;;0.40;;
10701;SDS011;5402;50.004;8.246;2022-07-01T04:31:55;0.63;;;0.57;;
10701;SDS011;5402;50.004;8.246;2022-07-01T04:34:22;1.07;;;0.60;;
10701;SDS011;5402;50.004;8.246;2022-07-01T04:36:49;0.30;;;0.30;;
10701;SDS011;5402;50.004;8.246;2022-07-01T04:39:16;0.70;;;0.70;;
10701;SDS011;5402;50.004;8.246;2022-07-01T04:41:42;0.40;;;0.40;;
10701;SDS011;5402;50.004;8.246;2022-07-01T04:44:29;0.77;;;0.60;;
10701;SDS011;5402;50.004;8.246;2022-07-01T04:46:57;0.63;;;0.63;;
10701;SDS011;5402;50.004;8.246;2022-07-01T04:49:24;0.67;;;0.43;;
10701;SDS011;5402;50.004;8.246;2022-07-01T04:51:51;0.80;;;0.70;;
10701;SDS011;5402;50.004;8.246;2022-07-01T04:54:18;0.40;;;0.40;;
10701;SDS011;5402;50.004;8.246;2022-07-01T04:56:45;0.70;;;0.70;;
10701;SDS011;5402;50.004;8.246;2022-07-01T04:59:12;0.37;;;0.37;;
10701;SDS011;5402;50.004;8.246;2022-07-01T05:01:41;1.20;;;0.70;;
10701;SDS011;5402;50.004;8.246;2022-07-01T05:04:13;1.27;;;0.80;;
10701;SDS011;5402;50.004;8.246;2022-07-01T05:06:40;0.80;;;0.80;;
10701;SDS011;5402;50.004;8.246;2022-07-01T05:09:07;2.83;;;0.80;;
10701;SDS011;5402;50.004;8.246;2022-07-01T05:11:34;3.40;;;0.77;;
10701;SDS011;5402;50.004;8.246;2022-07-01T05:14:00;0.60;;;0.60;;
10701;SDS011;5402;50.004;8.246;2022-07-01T05:16:27;1.47;;;0.80;;
10701;SDS011;5402;50.004;8.246;2022-07-01T05:18:55;0.73;;;0.60;;
10701;SDS011;5402;50.004;8.246;2022-07-01T05:21:39;1.03;;;0.93;;
10701;SDS011;5402;50.004;8.246;2022-07-01T05:24:25;1.40;;;0.93;;
10701;SDS011;5402;50.004;8.246;2022-07-01T05:26:55;1.27;;;1.17;;
10701;SDS011;5402;50.004;8.246;2022-07-01T05:29:23;1.00;;;1.00;;
10701;SDS011;5402;50.004;8.246;2022-07-01T05:31:49;1.77;;;1.10;;
10701;SDS011;5402;50.004;8.246;2022-07-01T05:34:17;1.30;;;1.20;;
10701;SDS011;5402;50.004;8.246;2022-07-01T05:36:44;1.30;;;1.10;;
10701;SDS011;5402;50.004;8.246;2022-07-01T05:39:11;1.53;;;1.20;;
10701;SDS011;5402;50.004;8.246;2022-07-01T05:41:38;2.77;;;1.20;;
10701;SDS011;5402;50.004;8.246;2022-07-01T05:44:05;2.23;;;1.40;;
10701;SDS011;5402;50.004;8.246;2022-07-01T05:46:32;1.67;;;1.43;;
10701;SDS011;5402;50.004;8.246;2022-07-01T05:48:58;2.00;;;1.80;;
10701;SDS011;5402;50.004;8.246;2022-07-01T05:51:27;2.13;;;1.83;;
10701;SDS011;5402;50.004;8.246;2022-07-01T05:53:53;1.97;;;1.70;;
10701;SDS011;5402;50.004;8.246;2022-07-01T05:56:22;1.60;;;1.47;;
10701;SDS011;5402;50.004;8.246;2022-07-01T05:58:50;2.93;;;1.73;;
10701;SDS011;5402;50.004;8.246;2022-07-01T06:01:17;2.90;;;1.50;;
10701;SDS011;5402;50.004;8.246;2022-07-01T06:03:44;1.83;;;1.57;;
10701;SDS011;5402;50.004;8.246;2022-07-01T06:06:11;3.33;;;1.90;;
10701;SDS011;5402;50.004;8.246;2022-07-01T06:08:39;2.27;;;1.50;;
10701;SDS011;5402;50.004;8.246;2022-07-01T06:11:05;3.43;;;2.63;;
10701;SDS011;5402;50.004;8.246;2022-07-01T06:13:32;2.07;;;1.87;;
10701;SDS011;5402;50.004;8.246;2022-07-01T06:15:59;4.37;;;1.67;;
10701;SDS011;5402;50.004;8.246;2022-07-01T06:18:26;2.40;;;1.80;;
10701;SDS011;5402;50.004;8.246;2022-07-01T06:20:52;1.97;;;1.67;;
10701;SDS011;5402;50.004;8.246;2022-07-01T06:23:19;2.53;;;1.50;;
10701;SDS011;5402;50.004;8.246;2022-07-01T06:25:47;3.60;;;2.23;;
10701;SDS011;5402;50.004;8.246;2022-07-01T06:28:14;1.60;;;1.50;;
10701;SDS011;5402;50.004;8.246;2022-07-01T06:30:41;3.27;;;2.67;;
10701;SDS011;5402;50.004;8.246;2022-07-01T06:33:09;2.40;;;1.73;;
10701;SDS011;5402;50.004;8.246;2022-07-01T06:35:37;3.43;;;1.80;;
10701;SDS011;5402;50.004;8.246;2022-07-01T06:38:04;3.07;;;2.03;;
10701;SDS011;5402;50.004;8.246;2022-07-01T06:40:30;4.07;;;3.20;;
10701;SDS011;5402;50.004;8.246;2022-07-01T06:42:59;2.13;;;1.70;;
10701;SDS011;5402;50.004;8.246;2022-07-01T06:45:25;2.93;;;1.80;;
10701;SDS011;5402;50.004;8.246;2022-07-01T06:47:52;4.57;;;2.50;;
10701;SDS011;5402;50.004;8.246;2022-07-01T06:50:19;2.73;;;2.43;;
10701;SDS011;5402;50.004;8.246;2022-07-01T06:52:46;2.33;;;2.03;;
10701;SDS011;5402;50.004;8.246;2022-07-01T06:55:13;1.97;;;1.53;;
10701;SDS011;5402;50.004;8.246;2022-07-01T06:57:39;2.73;;;1.50;;
10701;SDS011;5402;50.004;8.246;2022-07-01T07:00:08;2.70;;;1.80;;
10701;SDS011;5402;50.004;8.246;2022-07-01T07:02:36;2.83;;;1.80;;
10701;SDS011;5402;50.004;8.246;2022-07-01T07:05:04;1.40;;;1.30;;
10701;SDS011;5402;50.004;8.246;2022-07-01T07:07:32;1.60;;;1.50;;
10701;SDS011;5402;50.004;8.246;2022-07-01T07:09:58;1.80;;;1.60;;
10701;SDS011;5402;50.004;8.246;2022-07-01T07:12:25;2.70;;;1.80;;
10701;SDS011;5402;50.004;8.246;2022-07-01T07:14:52;2.90;;;1.73;;
10701;SDS011;5402;50.004;8.246;2022-07-01T07:17:20;2.53;;;1.70;;
10701;SDS011;5402;50.004;8.246;2022-07-01T07:19:47;3.17;;;1.60;;
10701;SDS011;5402;50.004;8.246;2022-07-01T07:22:13;3.73;;;1.90;;
10701;SDS011;5402;50.004;8.246;2022-07-01T07:24:40;3.63;;;1.80;;
10701;SDS011;5402;50.004;8.246;2022-07-01T07:27:07;3.43;;;1.80;;
10701;SDS011;5402;50.004;8.246;2022-07-01T07:29:33;2.23;;;1.70;;
10701;SDS011;5402;50.004;8.246;2022-07-01T07:32:00;2.03;;;1.60;;
10701;SDS011;5402;50.004;8.246;2022-07-01T07:34:28;2.07;;;1.87;;
10701;SDS011;5402;50.004;8.246;2022-07-01T07:36:55;2.93;;;1.70;;
10701;SDS011;5402;50.004;8.246;2022-07-01T07:39:21;3.63;;;1.47;;
10701;SDS011;5402;50.004;8.246;2022-07-01T07:41:49;2.60;;;1.80;;
10701;SDS011;5402;50.004;8.246;2022-07-01T07:44:15;2.90;;;1.77;;
10701;SDS011;5402;50.004;8.246;2022-07-01T07:46:42;2.73;;;1.70;;
10701;SDS011;5402;50.004;8.246;2022-07-01T07:49:09;2.10;;;1.70;;
10701;SDS011;5402;50.004;8.246;2022-07-01T07:51:37;2.23;;;1.77;;
10701;SDS011;5402;50.004;8.246;2022-07-01T07:54:04;5.20;;;1.67;;
10701;SDS011;5402;50.004;8.246;2022-07-01T07:56:32;2.30;;;1.77;;
10701;SDS011;5402;50.004;8.246;2022-07-01T07:58:58;5.93;;;2.50;;
10701;SDS011;5402;50.004;8.246;2022-07-01T08:01:25;3.37;;;1.30;;
10701;SDS011;5402;50.004;8.246;2022-07-01T08:03:52;5.40;;;1.90;;
10701;SDS011;5402;50.004;8.246;2022-07-01T08:06:19;5.53;;;1.70;;
10701;SDS011;5402;50.004;8.246;2022-07-01T08:08:48;1.70;;;1.60;;
10701;SDS011;5402;50.004;8.246;2022-07-01T08:11:14;2.77;;;1.63;;
10701;SDS011;5402;50.004;8.246;2022-07-01T08:13:41;1.70;;;1.60;;
10701;SDS011;5402;50.004;8.246;2022-07-01T08:16:08;3.37;;;1.70;;
10701;SDS011;5402;50.004;8.246;2022-07-01T08:18:35;2.57;;;1.57;;
10701;SDS011;5402;50.004;8.246;2022-07-01T08:21:02;1.93;;;1.73;;
10701;SDS011;5402;50.004;8.246;2022-07-01T08:23:29;5.90;;;2.13;;
10701;SDS011;5402;50.004;8.246;2022-07-01T08:25:58;3.30;;;1.40;;
10701;SDS011;5402;50.004;8.246;2022-07-01T08:28:24;2.43;;;1.43;;
10701;SDS011;5402;50.004;8.246;2022-07-01T08:30:51;1.80;;;1.70;;
10701;SDS011;5402;50.004;8.246;2022-07-01T08:33:18;4.60;;;1.70;;
10701;SDS011;5402;50.004;8.246;2022-07-01T08:35:45;3.40;;;1.90;;
10701;SDS011;5402;50.004;8.246;2022-07-01T08:38:12;2.37;;;1.77;;
10701;SDS011;5402;50.004;8.246;2022-07-01T08:40:39;3.90;;;2.40;;
10701;SDS011;5402;50.004;8.246;2022-07-01T08:43:08;3.47;;;1.43;;
10701;SDS011;5402;50.004;8.246;2022-07-01T08:45:35;2.03;;;1.83;;
10701;SDS011;5402;50.004;8.246;2022-07-01T08:48:03;2.40;;;1.50;;
10701;SDS011;5402;50.004;8.246;2022-07-01T08:50:33;5.10;;;1.83;;
10701;SDS011;5402;50.004;8.246;2022-07-01T08:53:01;2.13;;;1.70;;
10701;SDS011;5402;50.004;8.246;2022-07-01T08:55:29;1.63;;;1.40;;
10701;SDS011;5402;50.004;8.246;2022-07-01T08:57:56;1.30;;;1.20;;
10701;SDS011;5402;50.004;8.246;2022-07-01T09:00:34;5.70;;;1.70;;
10701;SDS011;5402;50.004;8.246;2022-07-01T09:03:02;2.10;;;1.63;;
10701;SDS011;5402;50.004;8.246;2022-07-01T09:05:30;2.70;;;1.40;;
10701;SDS011;5402;50.004;8.246;2022-07-01T09:07:58;1.30;;;1.20;;
10701;SDS011;5402;50.004;8.246;2022-07-01T09:10:30;5.13;;;1.60;;
10701;SDS011;5402;50.004;8.246;2022-07-01T09:13:02;4.30;;;1.77;;
10701;SDS011;5402;50.004;8.246;2022-07-01T09:15:30;3.03;;;1.30;;
10701;SDS011;5402;50.004;8.246;2022-07-01T09:18:04;2.87;;;1.43;;
10701;SDS011;5402;50.004;8.246;2022-07-01T09:20:32;1.93;;;1.43;;
10701;SDS011;5402;50.004;8.246;2022-07-01T09:23:01;3.80;;;1.47;;
10701;SDS011;5402;50.004;8.246;2022-07-01T09:25:30;4.90;;;1.90;;
10701;SDS011;5402;50.004;8.246;2022-07-01T09:28:08;2.03;;;1.40;;
10701;SDS011;5402;50.004;8.246;2022-07-01T09:30:38;3.53;;;1.60;;
10701;SDS011;5402;50.004;8.246;2022-07-01T09:33:15;2.10;;;1.40;;
10701;SDS011;5402;50.004;8.246;2022-07-01T09:35:44;6.23;;;1.57;;
10701;SDS011;5402;50.004;8.246;2022-07-01T09:38:12;2.27;;;1.20;;
10701;SDS011;5402;50.004;8.246;2022-07-01T09:40:50;1.87;;;1.30;;
10701;SDS011;5402;50.004;8.246;2022-07-01T09:43:19;2.23;;;1.17;;
10701;SDS011;5402;50.004;8.246;2022-07-01T09:45:50;1.40;;;1.30;;
10701;SDS011;5402;50.004;8.246;2022-07-01T09:48:19;4.47;;;1.60;;
10701;SDS011;5402;50.004;8.246;2022-07-01T09:50:46;2.13;;;1.30;;
10701;SDS011;5402;50.004;8.246;2022-07-01T09:53:13;3.07;;;1.27;;
10701;SDS011;5402;50.004;8.246;2022-07-01T09:55:40;1.77;;;1.40;;
10701;SDS011;5402;50.004;8.246;2022-07-01T09:58:08;3.20;;;1.23;;
10701;SDS011;5402;50.004;8.246;2022-07-01T10:00:35;1.20;;;1.10;;
10701;SDS011;5402;50.004;8.246;2022-07-01T10:03:03;1.37;;;1.27;;
10701;SDS011;5402;50.004;8.246;2022-07-01T10:05:35;3.50;;;1.27;;
10701;SDS011;5402;50.004;8.246;2022-07-01T10:11:24;1.90;;;1.20;;
10701;SDS011;5402;50.004;8.246;2022-07-01T10:14:09;1.20;;;1.10;;
10701;SDS011;5402;50.004;8.246;2022-07-01T10:16:38;2.67;;;1.17;;
10701;SDS011;5402;50.004;8.246;2022-07-01T10:19:06;3.07;;;1.30;;
10701;SDS011;5402;50.004;8.246;2022-07-01T10:21:53;1.67;;;1.13;;
10701;SDS011;5402;50.004;8.246;2022-07-01T10:24:22;2.00;;;1.10;;
10701;SDS011;5402;50.004;8.246;2022-07-01T10:26:49;1.70;;;1.20;;
10701;SDS011;5402;50.004;8.246;2022-07-01T10:29:26;1.90;;;1.30;;
10701;SDS011;5402;50.004;8.246;2022-07-01T10:31:57;1.67;;;1.03;;
10701;SDS011;5402;50.004;8.246;2022-07-01T10:34:26;1.63;;;1.20;;
10701;SDS011;5402;50.004;8.246;2022-07-01T10:37:02;2.50;;;1.33;;
10701;SDS011;5402;50.004;8.246;2022-07-01T10:39:31;1.57;;;1.37;;
10701;SDS011;5402;50.004;8.246;2022-07-01T10:42:26;0.90;;;0.90;;
10701;SDS011;5402;50.004;8.246;2022-07-01T10:47:39;2.70;;;1.10;;
10701;SDS011;5402;50.004;8.246;2022-07-01T10:50:08;2.10;;;1.00;;
10701;SDS011;5402;50.004;8.246;2022-07-01T10:52:37;2.40;;;1.10;;
10701;SDS011;5402;50.004;8.246;2022-07-01T10:55:05;1.63;;;1.10;;
10701;SDS011;5402;50.004;8.246;2022-07-01T10:57:34;2.67;;;1.50;;
10701;SDS011;5402;50.004;8.246;2022-07-01T11:00:24;1.40;;;1.17;;
10701;SDS011;5402;50.004;8.246;2022-07-01T11:03:17;1.70;;;1.10;;
10701;SDS011;5402;50.004;8.246;2022-07-01T11:05:50;3.33;;;1.27;;
10701;SDS011;5402;50.004;8.246;2022-07-01T11:08:20;0.70;;;0.70;;
10701;SDS011;5402;50.004;8.246;2022-07-01T11:10:49;1.08;;;1.00;;
10701;SDS011;5402;50.004;8.246;2022-07-01T11:13:18;1.27;;;1.10;;
10701;SDS011;5402;50.004;8.246;2022-07-01T11:15:46;1.77;;;1.10;;
10701;SDS011;5402;50.004;8.246;2022-07-01T11:18:13;1.17;;;0.93;;
10701;SDS011;5402;50.004;8.246;2022-07-01T11:20:41;1.23;;;1.10;;
10701;SDS011;5402;50.004;8.246;2022-07-01T11:23:09;1.00;;;1.00;;
10701;SDS011;5402;50.004;8.246;2022-07-01T11:25:37;1.30;;;1.20;;
10701;SDS011;5402;50.004;8.246;2022-07-01T11:28:04;1.10;;;1.10;;
10701;SDS011;5402;50.004;8.246;2022-07-01T11:30:31;1.57;;;0.97;;
10701;SDS011;5402;50.004;8.246;2022-07-01T11:32:58;1.10;;;1.10;;
10701;SDS011;5402;50.004;8.246;2022-07-01T11:35:26;1.13;;;1.03;;
10701;SDS011;5402;50.004;8.246;2022-07-01T11:38:12;1.83;;;1.20;;
10701;SDS011;5402;50.004;8.246;2022-07-01T11:41:00;1.20;;;1.10;;
10701;SDS011;5402;50.004;8.246;2022-07-01T11:43:31;1.20;;;1.10;;
10701;SDS011;5402;50.004;8.246;2022-07-01T11:46:00;1.77;;;1.07;;
10701;SDS011;5402;50.004;8.246;2022-07-01T11:48:38;1.10;;;1.00;;
10701;SDS011;5402;50.004;8.246;2022-07-01T11:51:09;1.40;;;1.10;;
10701;SDS011;5402;50.004;8.246;2022-07-01T11:53:39;1.23;;;1.00;;
10701;SDS011;5402;50.004;8.246;2022-07-01T11:56:08;1.25;;;1.10;;
10701;SDS011;5402;50.004;8.246;2022-07-01T11:58:45;2.13;;;1.00;;
10701;SDS011;5402;50.004;8.246;2022-07-01T12:01:21;1.90;;;1.15;;
10701;SDS011;5402;50.004;8.246;2022-07-01T12:03:51;1.38;;;1.00;;
10701;SDS011;5402;50.004;8.246;2022-07-01T12:06:19;1.17;;;1.08;;
10701;SDS011;5402;50.004;8.246;2022-07-01T12:08:48;1.77;;;1.00;;
10701;SDS011;5402;50.004;8.246;2022-07-01T12:11:17;0.90;;;0.90;;
10701;SDS011;5402;50.004;8.246;2022-07-01T12:13:45;2.85;;;1.05;;
10701;SDS011;5402;50.004;8.246;2022-07-01T12:16:13;1.25;;;1.10;;
10701;SDS011;5402;50.004;8.246;2022-07-01T12:18:50;2.00;;;1.10;;
10701;SDS011;5402;50.004;8.246;2022-07-01T12:21:18;1.65;;;1.00;;
10701;SDS011;5402;50.004;8.246;2022-07-01T12:26:32;2.13;;;1.20;;
10701;SDS011;5402;50.004;8.246;2022-07-01T12:28:58;1.20;;;1.10;;
10701;SDS011;5402;50.004;8.246;2022-07-01T12:31:25;1.77;;;1.00;;
10701;SDS011;5402;50.004;8.246;2022-07-01T12:33:52;2.78;;;1.20;;
10701;SDS011;5402;50.004;8.246;2022-07-01T12:36:19;1.17;;;1.10;;
10701;SDS011;5402;50.004;8.246;2022-07-01T12:38:46;2.80;;;1.20;;
10701;SDS011;5402;50.004;8.246;2022-07-01T12:41:28;1.13;;;1.05;;
10701;SDS011;5402;50.004;8.246;2022-07-01T12:44:00;0.98;;;0.93;;
10701;SDS011;5402;50.004;8.246;2022-07-01T12:46:27;1.63;;;1.10;;
10701;SDS011;5402;50.004;8.246;2022-07-01T12:48:54;1.00;;;0.90;;
10701;SDS011;5402;50.004;8.246;2022-07-01T12:51:27;1.23;;;0.90;;
10701;SDS011;5402;50.004;8.246;2022-07-01T12:53:55;3.00;;;0.98;;
10701;SDS011;5402;50.004;8.246;2022-07-01T12:56:22;1.40;;;0.95;;
10701;SDS011;5402;50.004;8.246;2022-07-01T12:58:50;2.08;;;1.08;;
10701;SDS011;5402;50.004;8.246;2022-07-01T13:01:19;1.30;;;0.93;;
10701;SDS011;5402;50.004;8.246;2022-07-01T13:03:47;4.40;;;1.10;;
10701;SDS011;5402;50.004;8.246;2022-07-01T13:06:14;7.78;;;1.30;;
10701;SDS011;5402;50.004;8.246;2022-07-01T13:08:40;2.47;;;1.20;;
10701;SDS011;5402;50.004;8.246;2022-07-01T13:11:07;0.98;;;0.90;;
10701;SDS011;5402;50.004;8.246;2022-07-01T13:13:34;1.50;;;0.90;;
10701;SDS011;5402;50.004;8.246;2022-07-01T13:16:01;5.07;;;1.35;;
10701;SDS011;5402;50.004;8.246;2022-07-01T13:18:29;1.73;;;0.85;;
10701;SDS011;5402;50.004;8.246;2022-07-01T13:20:56;1.00;;;0.90;;
10701;SDS011;5402;50.004;8.246;2022-07-01T13:23:22;1.10;;;1.00;;
10701;SDS011;5402;50.004;8.246;2022-07-01T13:25:49;0.90;;;0.90;;
10701;SDS011;5402;50.004;8.246;2022-07-01T13:28:16;1.05;;;0.90;;
10701;SDS011;5402;50.004;8.246;2022-07-01T13:30:42;1.65;;;0.93;;
10701;SDS011;5402;50.004;8.246;2022-07-01T13:33:09;1.65;;;0.85;;
10701;SDS011;5402;50.004;8.246;2022-07-01T13:35:37;2.05;;;0.98;;
10701;SDS011;5402;50.004;8.246;2022-07-01T13:38:04;0.90;;;0.80;;
10701;SDS011;5402;50.004;8.246;2022-07-01T13:40:31;1.60;;;1.00;;
10701;SDS011;5402;50.004;8.246;2022-07-01T13:42:58;0.85;;;0.70;;
10701;SDS011;5402;50.004;8.246;2022-07-01T13:45:25;2.65;;;0.90;;
10701;SDS011;5402;50.004;8.246;2022-07-01T13:47:51;2.05;;;0.90;;
10701;SDS011;5402;50.004;8.246;2022-07-01T13:50:18;0.70;;;0.70;;
10701;SDS011;5402;50.004;8.246;2022-07-01T13:52:47;1.55;;;0.95;;
10701;SDS011;5402;50.004;8.246;2022-07-01T13:55:14;1.00;;;1.00;;
10701;SDS011;5402;50.004;8.246;2022-07-01T13:57:41;1.13;;;0.85;;
10701;SDS011;5402;50.004;8.246;2022-07-01T14:00:09;0.65;;;0.65;;
10701;SDS011;5402;50.004;8.246;2022-07-01T14:02:36;0.95;;;0.63;;
10701;SDS011;5402;50.004;8.246;2022-07-01T14:05:03;0.90;;;0.73;;
10701;SDS011;5402;50.004;8.246;2022-07-01T14:07:33;1.05;;;0.80;;
10701;SDS011;5402;50.004;8.246;2022-07-01T14:10:01;1.02;;;0.70;;
10701;SDS011;5402;50.004;8.246;2022-07-01T14:12:28;1.65;;;0.98;;
10701;SDS011;5402;50.004;8.246;2022-07-01T14:14:55;0.70;;;0.70;;
10701;SDS011;5402;50.004;8.246;2022-07-01T14:17:23;0.80;;;0.80;;
10701;SDS011;5402;50.004;8.246;2022-07-01T14:19:50;1.23;;;0.80;;
10701;SDS011;5402;50.004;8.246;2022-07-01T14:22:16;0.73;;;0.73;;
10701;SDS011;5402;50.004;8.246;2022-07-01T14:24:43;1.00;;;0.90;;
10701;SDS011;5402;50.004;8.246;2022-07-01T14:27:11;0.88;;;0.88;;
10701;SDS011;5402;50.004;8.246;2022-07-01T14:29:38;1.30;;;0.80;;
10701;SDS011;5402;50.004;8.246;2022-07-01T14:32:05;0.68;;;0.68;;
10701;SDS011;5402;50.004;8.246;2022-07-01T14:34:32;0.75;;;0.75;;
10701;SDS011;5402;50.004;8.246;2022-07-01T14:36:59;1.00;;;0.93;;
10701;SDS011;5402;50.004;8.246;2022-07-01T14:39:27;0.88;;;0.73;;
10701;SDS011;5402;50.004;8.246;2022-07-01T14:41:53;0.63;;;0.63;;
10701;SDS011;5402;50.004;8.246;2022-07-01T14:44:22;1.50;;;0.88;;
10701;SDS011;5402;50.004;8.246;2022-07-01T14:46:51;1.70;;;0.80;;
10701;SDS011;5402;50.004;8.246;2022-07-01T14:49:18;0.90;;;0.90;;
10701;SDS011;5402;50.004;8.246;2022-07-01T14:51:45;0.75;;;0.70;;
10701;SDS011;5402;50.004;8.246;2022-07-01T14:54:12;0.70;;;0.70;;
10701;SDS011;5402;50.004;8.246;2022-07-01T14:56:39;0.90;;;0.90;;
10701;SDS011;5402;50.004;8.246;2022-07-01T14:59:05;0.68;;;0.68;;
10701;SDS011;5402;50.004;8.246;2022-07-01T15:01:34;0.80;;;0.80;;
10701;SDS011;5402;50.004;8.246;2022-07-01T15:04:01;0.80;;;0.80;;
10701;SDS011;5402;50.004;8.246;2022-07-01T15:06:30;1.08;;;0.90;;
10701;SDS011;5402;50.004;8.246;2022-07-01T15:08:56;0.88;;;0.70;;
10701;SDS011;5402;50.004;8.246;2022-07-01T15:11:24;0.90;;;0.90;;
10701;SDS011;5402;50.004;8.246;2022-07-01T15:13:51;0.80;;;0.80;;
10701;SDS011;5402;50.004;8.246;2022-07-01T15:16:18;0.90;;;0.73;;